Terminal Aerodrome Forecast
Issued by NWS Charleston, WV

Current Version | Previous Version | Text Only | Print | Product List | Glossary Off
Versions: 1 2 3 4 5 6 7 8 9 10 11 12 13 14 15 16 17 18 19 20 21 22 23 24 25 26 27 28 29 30 31 32 33

000
FTUS41 KRLX 222300 CCA
TAFBKW
TAF COR
KBKW 222330Z 2300/2324 33007KT 5SM -DZ BR BKN008 OVC015
     FM230300 34006KT P6SM OVC012
     FM230900 33007KT P6SM OVC008
     FM231400 32007KT P6SM OVC015
     FM232200 31007KT P6SM SCT020=

USA.gov is the U.S. government's official web portal to all federal, state and local government web resources and services.